sensor_id;sensor_type;location;lat;lon;timestamp;P1;durP1;ratioP1;P2;durP2;ratioP2
42802;SDS011;28447;48.682;9.022;2023-08-01T04:02:14;6.33;;;4.53;;
42802;SDS011;28447;48.682;9.022;2023-08-01T04:04:39;6.87;;;4.33;;
42802;SDS011;28447;48.682;9.022;2023-08-01T04:07:05;6.10;;;3.93;;
42802;SDS011;28447;48.682;9.022;2023-08-01T04:09:30;7.80;;;4.80;;
42802;SDS011;28447;48.682;9.022;2023-08-01T04:11:56;7.00;;;4.20;;
42802;SDS011;28447;48.682;9.022;2023-08-01T04:14:22;5.93;;;4.40;;
42802;SDS011;28447;48.682;9.022;2023-08-01T04:16:47;5.10;;;4.50;;
42802;SDS011;28447;48.682;9.022;2023-08-01T04:19:13;8.33;;;4.17;;
42802;SDS011;28447;48.682;9.022;2023-08-01T04:21:39;10.90;;;5.40;;
42802;SDS011;28447;48.682;9.022;2023-08-01T04:24:05;7.80;;;5.07;;
42802;SDS011;28447;48.682;9.022;2023-08-01T04:26:30;7.37;;;5.00;;
42802;SDS011;28447;48.682;9.022;2023-08-01T04:28:56;4.70;;;3.43;;
42802;SDS011;28447;48.682;9.022;2023-08-01T04:31:22;7.70;;;4.37;;
42802;SDS011;28447;48.682;9.022;2023-08-01T04:33:47;9.83;;;4.50;;
42802;SDS011;28447;48.682;9.022;2023-08-01T04:36:13;5.07;;;4.03;;
42802;SDS011;28447;48.682;9.022;2023-08-01T04:38:38;6.50;;;4.17;;
42802;SDS011;28447;48.682;9.022;2023-08-01T04:41:04;6.60;;;4.53;;
42802;SDS011;28447;48.682;9.022;2023-08-01T04:43:30;6.83;;;4.80;;
42802;SDS011;28447;48.682;9.022;2023-08-01T04:45:55;6.00;;;3.83;;
42802;SDS011;28447;48.682;9.022;2023-08-01T04:48:21;6.67;;;4.40;;
42802;SDS011;28447;48.682;9.022;2023-08-01T04:50:46;14.20;;;4.23;;
42802;SDS011;28447;48.682;9.022;2023-08-01T04:53:12;7.67;;;4.70;;
42802;SDS011;28447;48.682;9.022;2023-08-01T04:55:38;6.73;;;4.53;;
42802;SDS011;28447;48.682;9.022;2023-08-01T04:58:04;8.80;;;4.73;;
42802;SDS011;28447;48.682;9.022;2023-08-01T05:00:30;7.97;;;4.53;;
42802;SDS011;28447;48.682;9.022;2023-08-01T05:02:56;6.63;;;4.70;;
42802;SDS011;28447;48.682;9.022;2023-08-01T05:05:21;9.10;;;5.00;;
42802;SDS011;28447;48.682;9.022;2023-08-01T05:07:47;8.30;;;5.20;;
42802;SDS011;28447;48.682;9.022;2023-08-01T05:10:12;6.07;;;4.43;;
42802;SDS011;28447;48.682;9.022;2023-08-01T05:12:38;7.93;;;4.63;;
42802;SDS011;28447;48.682;9.022;2023-08-01T05:15:04;6.17;;;4.77;;
42802;SDS011;28447;48.682;9.022;2023-08-01T05:17:30;8.33;;;4.53;;
42802;SDS011;28447;48.682;9.022;2023-08-01T05:19:55;7.67;;;4.43;;
42802;SDS011;28447;48.682;9.022;2023-08-01T05:22:21;6.00;;;4.90;;
42802;SDS011;28447;48.682;9.022;2023-08-01T05:24:47;6.60;;;4.93;;
42802;SDS011;28447;48.682;9.022;2023-08-01T05:27:12;8.73;;;5.47;;
42802;SDS011;28447;48.682;9.022;2023-08-01T05:29:38;11.60;;;4.93;;
42802;SDS011;28447;48.682;9.022;2023-08-01T05:32:03;6.73;;;4.97;;
42802;SDS011;28447;48.682;9.022;2023-08-01T05:34:29;9.63;;;4.70;;
42802;SDS011;28447;48.682;9.022;2023-08-01T05:36:55;7.80;;;5.00;;
42802;SDS011;28447;48.682;9.022;2023-08-01T05:39:20;8.80;;;4.93;;
42802;SDS011;28447;48.682;9.022;2023-08-01T05:41:46;7.33;;;4.97;;
42802;SDS011;28447;48.682;9.022;2023-08-01T05:44:11;8.47;;;5.20;;
42802;SDS011;28447;48.682;9.022;2023-08-01T05:46:37;6.47;;;4.80;;
42802;SDS011;28447;48.682;9.022;2023-08-01T05:49:03;5.90;;;4.60;;
42802;SDS011;28447;48.682;9.022;2023-08-01T05:51:28;11.87;;;5.13;;
42802;SDS011;28447;48.682;9.022;2023-08-01T05:53:54;8.37;;;5.40;;
42802;SDS011;28447;48.682;9.022;2023-08-01T05:56:20;8.57;;;5.17;;
42802;SDS011;28447;48.682;9.022;2023-08-01T05:58:45;6.63;;;4.90;;
42802;SDS011;28447;48.682;9.022;2023-08-01T06:01:11;7.23;;;4.90;;
42802;SDS011;28447;48.682;9.022;2023-08-01T06:03:37;6.43;;;4.63;;
42802;SDS011;28447;48.682;9.022;2023-08-01T06:06:03;7.90;;;4.57;;
42802;SDS011;28447;48.682;9.022;2023-08-01T06:08:29;7.30;;;4.67;;
42802;SDS011;28447;48.682;9.022;2023-08-01T06:10:55;8.70;;;4.47;;
42802;SDS011;28447;48.682;9.022;2023-08-01T06:13:20;12.60;;;5.00;;
42802;SDS011;28447;48.682;9.022;2023-08-01T06:15:46;6.03;;;4.93;;
42802;SDS011;28447;48.682;9.022;2023-08-01T06:18:12;5.23;;;4.20;;
42802;SDS011;28447;48.682;9.022;2023-08-01T06:20:38;6.50;;;4.30;;
42802;SDS011;28447;48.682;9.022;2023-08-01T06:23:04;5.90;;;4.50;;
42802;SDS011;28447;48.682;9.022;2023-08-01T06:25:30;8.80;;;4.40;;
42802;SDS011;28447;48.682;9.022;2023-08-01T06:27:56;7.40;;;5.10;;
42802;SDS011;28447;48.682;9.022;2023-08-01T06:30:21;9.93;;;5.63;;
42802;SDS011;28447;48.682;9.022;2023-08-01T06:32:47;7.27;;;4.80;;
42802;SDS011;28447;48.682;9.022;2023-08-01T06:35:12;7.47;;;5.20;;
42802;SDS011;28447;48.682;9.022;2023-08-01T06:37:38;6.63;;;5.10;;
42802;SDS011;28447;48.682;9.022;2023-08-01T06:40:04;7.90;;;5.43;;
42802;SDS011;28447;48.682;9.022;2023-08-01T06:42:30;8.17;;;5.40;;
42802;SDS011;28447;48.682;9.022;2023-08-01T06:44:56;6.63;;;5.33;;
42802;SDS011;28447;48.682;9.022;2023-08-01T06:47:21;11.53;;;5.67;;
42802;SDS011;28447;48.682;9.022;2023-08-01T06:49:47;7.80;;;5.53;;
42802;SDS011;28447;48.682;9.022;2023-08-01T06:52:12;8.27;;;5.43;;
42802;SDS011;28447;48.682;9.022;2023-08-01T06:54:38;8.33;;;6.10;;
42802;SDS011;28447;48.682;9.022;2023-08-01T06:57:04;6.83;;;5.40;;
42802;SDS011;28447;48.682;9.022;2023-08-01T06:59:31;9.37;;;6.67;;
42802;SDS011;28447;48.682;9.022;2023-08-01T07:01:57;10.47;;;6.10;;
42802;SDS011;28447;48.682;9.022;2023-08-01T07:04:22;9.00;;;5.73;;
42802;SDS011;28447;48.682;9.022;2023-08-01T07:06:48;9.90;;;7.20;;
42802;SDS011;28447;48.682;9.022;2023-08-01T07:09:14;8.57;;;6.00;;
42802;SDS011;28447;48.682;9.022;2023-08-01T07:11:40;8.70;;;6.13;;
42802;SDS011;28447;48.682;9.022;2023-08-01T07:14:06;10.03;;;5.97;;
42802;SDS011;28447;48.682;9.022;2023-08-01T07:16:31;8.10;;;6.43;;
42802;SDS011;28447;48.682;9.022;2023-08-01T07:18:59;9.67;;;6.03;;
42802;SDS011;28447;48.682;9.022;2023-08-01T07:21:25;8.70;;;6.20;;
42802;SDS011;28447;48.682;9.022;2023-08-01T07:23:51;8.53;;;6.07;;
42802;SDS011;28447;48.682;9.022;2023-08-01T07:26:17;9.57;;;6.43;;
42802;SDS011;28447;48.682;9.022;2023-08-01T07:28:42;8.50;;;6.60;;
42802;SDS011;28447;48.682;9.022;2023-08-01T07:31:08;8.50;;;5.60;;
42802;SDS011;28447;48.682;9.022;2023-08-01T07:33:34;6.57;;;4.77;;
42802;SDS011;28447;48.682;9.022;2023-08-01T07:36:00;12.37;;;6.27;;
42802;SDS011;28447;48.682;9.022;2023-08-01T07:38:26;8.83;;;5.13;;
42802;SDS011;28447;48.682;9.022;2023-08-01T07:40:52;7.30;;;5.20;;
42802;SDS011;28447;48.682;9.022;2023-08-01T07:43:18;6.30;;;4.70;;
42802;SDS011;28447;48.682;9.022;2023-08-01T07:45:44;7.17;;;4.40;;
42802;SDS011;28447;48.682;9.022;2023-08-01T07:48:10;6.60;;;4.27;;
42802;SDS011;28447;48.682;9.022;2023-08-01T07:50:36;7.47;;;4.03;;
42802;SDS011;28447;48.682;9.022;2023-08-01T07:53:02;7.50;;;4.27;;
42802;SDS011;28447;48.682;9.022;2023-08-01T07:55:27;5.97;;;3.87;;
42802;SDS011;28447;48.682;9.022;2023-08-01T07:57:53;5.73;;;4.27;;
42802;SDS011;28447;48.682;9.022;2023-08-01T08:00:19;5.10;;;3.73;;
42802;SDS011;28447;48.682;9.022;2023-08-01T08:02:45;6.13;;;3.80;;
42802;SDS011;28447;48.682;9.022;2023-08-01T08:05:11;5.47;;;3.77;;
42802;SDS011;28447;48.682;9.022;2023-08-01T08:07:37;5.13;;;3.53;;
42802;SDS011;28447;48.682;9.022;2023-08-01T08:10:03;6.60;;;4.50;;
42802;SDS011;28447;48.682;9.022;2023-08-01T08:12:30;3.30;;;2.87;;
42802;SDS011;28447;48.682;9.022;2023-08-01T08:14:56;4.80;;;3.80;;
42802;SDS011;28447;48.682;9.022;2023-08-01T08:17:22;6.77;;;3.80;;
42802;SDS011;28447;48.682;9.022;2023-08-01T08:19:47;7.30;;;4.20;;
42802;SDS011;28447;48.682;9.022;2023-08-01T08:22:13;5.63;;;3.80;;
42802;SDS011;28447;48.682;9.022;2023-08-01T08:24:39;7.97;;;4.83;;
42802;SDS011;28447;48.682;9.022;2023-08-01T08:27:05;7.87;;;4.07;;
42802;SDS011;28447;48.682;9.022;2023-08-01T08:29:31;13.63;;;4.63;;
42802;SDS011;28447;48.682;9.022;2023-08-01T08:31:57;6.97;;;4.70;;
42802;SDS011;28447;48.682;9.022;2023-08-01T08:34:23;6.03;;;4.13;;
42802;SDS011;28447;48.682;9.022;2023-08-01T08:36:48;7.47;;;5.00;;
42802;SDS011;28447;48.682;9.022;2023-08-01T08:39:17;6.20;;;4.10;;
42802;SDS011;28447;48.682;9.022;2023-08-01T08:41:47;8.23;;;5.10;;
42802;SDS011;28447;48.682;9.022;2023-08-01T08:44:14;7.33;;;4.30;;
42802;SDS011;28447;48.682;9.022;2023-08-01T08:46:42;4.83;;;3.80;;
42802;SDS011;28447;48.682;9.022;2023-08-01T08:49:09;7.33;;;4.23;;
42802;SDS011;28447;48.682;9.022;2023-08-01T08:51:35;6.00;;;4.60;;
42802;SDS011;28447;48.682;9.022;2023-08-01T08:54:03;7.90;;;5.10;;
42802;SDS011;28447;48.682;9.022;2023-08-01T08:56:31;6.40;;;4.10;;
42802;SDS011;28447;48.682;9.022;2023-08-01T08:58:58;8.23;;;4.97;;
42802;SDS011;28447;48.682;9.022;2023-08-01T09:01:25;6.60;;;4.80;;
42802;SDS011;28447;48.682;9.022;2023-08-01T09:03:51;5.00;;;4.43;;
42802;SDS011;28447;48.682;9.022;2023-08-01T09:06:20;6.43;;;4.67;;
42802;SDS011;28447;48.682;9.022;2023-08-01T09:08:55;5.37;;;3.90;;
42802;SDS011;28447;48.682;9.022;2023-08-01T09:11:27;4.27;;;3.50;;
42802;SDS011;28447;48.682;9.022;2023-08-01T09:13:52;4.10;;;3.70;;
42802;SDS011;28447;48.682;9.022;2023-08-01T09:16:18;3.80;;;3.17;;
42802;SDS011;28447;48.682;9.022;2023-08-01T09:18:51;4.47;;;3.17;;
42802;SDS011;28447;48.682;9.022;2023-08-01T09:21:18;5.87;;;3.50;;
42802;SDS011;28447;48.682;9.022;2023-08-01T09:23:45;4.63;;;3.20;;
42802;SDS011;28447;48.682;9.022;2023-08-01T09:26:15;4.93;;;2.90;;
42802;SDS011;28447;48.682;9.022;2023-08-01T09:28:41;4.60;;;3.20;;
42802;SDS011;28447;48.682;9.022;2023-08-01T09:31:07;4.90;;;3.07;;
42802;SDS011;28447;48.682;9.022;2023-08-01T09:33:39;3.43;;;2.20;;
42802;SDS011;28447;48.682;9.022;2023-08-01T09:36:06;3.20;;;2.30;;
42802;SDS011;28447;48.682;9.022;2023-08-01T09:38:37;2.47;;;2.03;;
42802;SDS011;28447;48.682;9.022;2023-08-01T09:41:03;3.30;;;1.70;;
42802;SDS011;28447;48.682;9.022;2023-08-01T09:43:33;3.60;;;2.30;;
42802;SDS011;28447;48.682;9.022;2023-08-01T09:46:02;2.27;;;1.83;;
42802;SDS011;28447;48.682;9.022;2023-08-01T09:48:31;3.10;;;2.03;;
42802;SDS011;28447;48.682;9.022;2023-08-01T09:51:06;2.67;;;2.27;;
42802;SDS011;28447;48.682;9.022;2023-08-01T09:53:33;2.13;;;1.60;;
42802;SDS011;28447;48.682;9.022;2023-08-01T09:56:00;1.93;;;1.47;;
42802;SDS011;28447;48.682;9.022;2023-08-01T09:58:33;2.30;;;1.40;;
42802;SDS011;28447;48.682;9.022;2023-08-01T10:01:00;3.63;;;1.70;;
42802;SDS011;28447;48.682;9.022;2023-08-01T10:03:29;2.33;;;1.50;;
42802;SDS011;28447;48.682;9.022;2023-08-01T10:05:55;1.87;;;1.50;;
42802;SDS011;28447;48.682;9.022;2023-08-01T10:08:22;1.50;;;1.27;;
42802;SDS011;28447;48.682;9.022;2023-08-01T10:10:48;3.13;;;1.20;;
42802;SDS011;28447;48.682;9.022;2023-08-01T10:13:14;1.80;;;1.40;;
42802;SDS011;28447;48.682;9.022;2023-08-01T10:15:40;2.37;;;1.40;;
42802;SDS011;28447;48.682;9.022;2023-08-01T10:18:07;2.03;;;1.43;;
42802;SDS011;28447;48.682;9.022;2023-08-01T10:20:36;1.50;;;1.40;;
42802;SDS011;28447;48.682;9.022;2023-08-01T10:23:02;2.60;;;1.70;;
42802;SDS011;28447;48.682;9.022;2023-08-01T10:25:29;1.80;;;1.43;;
42802;SDS011;28447;48.682;9.022;2023-08-01T10:27:59;1.37;;;1.27;;
42802;SDS011;28447;48.682;9.022;2023-08-01T10:30:26;1.50;;;1.40;;
42802;SDS011;28447;48.682;9.022;2023-08-01T10:32:54;2.57;;;1.90;;
42802;SDS011;28447;48.682;9.022;2023-08-01T10:35:35;1.60;;;1.47;;
42802;SDS011;28447;48.682;9.022;2023-08-01T10:38:09;2.00;;;1.53;;
42802;SDS011;28447;48.682;9.022;2023-08-01T10:40:40;2.07;;;1.33;;
42802;SDS011;28447;48.682;9.022;2023-08-01T10:43:20;1.67;;;1.47;;
42802;SDS011;28447;48.682;9.022;2023-08-01T10:46:10;1.47;;;1.27;;
42802;SDS011;28447;48.682;9.022;2023-08-01T10:48:35;2.20;;;1.60;;
42802;SDS011;28447;48.682;9.022;2023-08-01T10:51:12;1.50;;;1.27;;
42802;SDS011;28447;48.682;9.022;2023-08-01T10:53:38;2.17;;;1.23;;
42802;SDS011;28447;48.682;9.022;2023-08-01T10:56:04;1.40;;;1.30;;
42802;SDS011;28447;48.682;9.022;2023-08-01T10:58:30;1.87;;;1.40;;
42802;SDS011;28447;48.682;9.022;2023-08-01T11:01:00;1.63;;;1.53;;
42802;SDS011;28447;48.682;9.022;2023-08-01T11:03:35;1.67;;;1.50;;
42802;SDS011;28447;48.682;9.022;2023-08-01T11:06:01;2.30;;;2.00;;
42802;SDS011;28447;48.682;9.022;2023-08-01T11:08:38;1.80;;;1.50;;
42802;SDS011;28447;48.682;9.022;2023-08-01T11:11:05;2.50;;;1.80;;
42802;SDS011;28447;48.682;9.022;2023-08-01T11:13:32;2.40;;;1.80;;
42802;SDS011;28447;48.682;9.022;2023-08-01T11:16:01;2.50;;;1.70;;
42802;SDS011;28447;48.682;9.022;2023-08-01T11:18:39;2.17;;;1.70;;
42802;SDS011;28447;48.682;9.022;2023-08-01T11:21:08;2.97;;;2.10;;
42802;SDS011;28447;48.682;9.022;2023-08-01T11:23:34;2.50;;;1.60;;
42802;SDS011;28447;48.682;9.022;2023-08-01T11:26:01;1.90;;;1.70;;
42802;SDS011;28447;48.682;9.022;2023-08-01T11:28:35;1.90;;;1.70;;
42802;SDS011;28447;48.682;9.022;2023-08-01T11:31:01;2.63;;;1.73;;
42802;SDS011;28447;48.682;9.022;2023-08-01T11:33:37;2.93;;;1.83;;
42802;SDS011;28447;48.682;9.022;2023-08-01T11:36:03;1.97;;;1.47;;
42802;SDS011;28447;48.682;9.022;2023-08-01T11:38:31;2.43;;;1.80;;
42802;SDS011;28447;48.682;9.022;2023-08-01T11:40:59;2.17;;;1.60;;
42802;SDS011;28447;48.682;9.022;2023-08-01T11:43:26;2.00;;;1.57;;
42802;SDS011;28447;48.682;9.022;2023-08-01T11:45:55;2.33;;;1.70;;
42802;SDS011;28447;48.682;9.022;2023-08-01T11:48:24;2.43;;;1.73;;
42802;SDS011;28447;48.682;9.022;2023-08-01T11:50:55;2.47;;;1.80;;
42802;SDS011;28447;48.682;9.022;2023-08-01T11:53:23;1.97;;;1.50;;
42802;SDS011;28447;48.682;9.022;2023-08-01T11:55:49;1.53;;;1.43;;
42802;SDS011;28447;48.682;9.022;2023-08-01T11:58:35;2.17;;;1.67;;
42802;SDS011;28447;48.682;9.022;2023-08-01T12:01:05;1.97;;;1.73;;
42802;SDS011;28447;48.682;9.022;2023-08-01T12:03:46;2.10;;;1.83;;
42802;SDS011;28447;48.682;9.022;2023-08-01T12:06:13;3.10;;;1.70;;
42802;SDS011;28447;48.682;9.022;2023-08-01T12:08:40;3.13;;;1.90;;
42802;SDS011;28447;48.682;9.022;2023-08-01T12:14:10;2.50;;;1.90;;
42802;SDS011;28447;48.682;9.022;2023-08-01T12:16:45;2.33;;;1.50;;
42802;SDS011;28447;48.682;9.022;2023-08-01T12:19:16;2.00;;;1.80;;
42802;SDS011;28447;48.682;9.022;2023-08-01T12:21:43;2.88;;;1.90;;
42802;SDS011;28447;48.682;9.022;2023-08-01T12:24:10;4.83;;;1.90;;
42802;SDS011;28447;48.682;9.022;2023-08-01T12:26:35;2.00;;;1.80;;
42802;SDS011;28447;48.682;9.022;2023-08-01T12:29:01;4.20;;;1.77;;
42802;SDS011;28447;48.682;9.022;2023-08-01T12:31:26;2.90;;;2.10;;
42802;SDS011;28447;48.682;9.022;2023-08-01T12:33:53;2.00;;;1.80;;
42802;SDS011;28447;48.682;9.022;2023-08-01T12:36:18;2.20;;;2.00;;
42802;SDS011;28447;48.682;9.022;2023-08-01T12:38:44;4.27;;;2.10;;
42802;SDS011;28447;48.682;9.022;2023-08-01T12:41:10;2.80;;;2.00;;
42802;SDS011;28447;48.682;9.022;2023-08-01T12:43:36;2.30;;;1.90;;
42802;SDS011;28447;48.682;9.022;2023-08-01T12:46:02;3.10;;;1.90;;
42802;SDS011;28447;48.682;9.022;2023-08-01T12:48:27;2.83;;;2.00;;
42802;SDS011;28447;48.682;9.022;2023-08-01T12:50:54;2.25;;;1.85;;
42802;SDS011;28447;48.682;9.022;2023-08-01T12:53:20;3.45;;;2.40;;
42802;SDS011;28447;48.682;9.022;2023-08-01T12:55:47;2.20;;;1.70;;
42802;SDS011;28447;48.682;9.022;2023-08-01T12:58:14;2.10;;;1.90;;
42802;SDS011;28447;48.682;9.022;2023-08-01T13:00:40;3.35;;;1.90;;
42802;SDS011;28447;48.682;9.022;2023-08-01T13:03:06;3.85;;;2.20;;
42802;SDS011;28447;48.682;9.022;2023-08-01T13:05:39;2.30;;;2.10;;
42802;SDS011;28447;48.682;9.022;2023-08-01T13:08:07;1.93;;;1.80;;
42802;SDS011;28447;48.682;9.022;2023-08-01T13:10:37;2.67;;;2.00;;
42802;SDS011;28447;48.682;9.022;2023-08-01T13:13:03;3.40;;;2.10;;
42802;SDS011;28447;48.682;9.022;2023-08-01T13:15:29;2.00;;;1.80;;
42802;SDS011;28447;48.682;9.022;2023-08-01T13:17:55;1.90;;;1.70;;
42802;SDS011;28447;48.682;9.022;2023-08-01T13:20:21;2.40;;;1.77;;
42802;SDS011;28447;48.682;9.022;2023-08-01T13:22:48;3.00;;;2.13;;
42802;SDS011;28447;48.682;9.022;2023-08-01T13:25:14;2.50;;;1.92;;
42802;SDS011;28447;48.682;9.022;2023-08-01T13:27:40;3.57;;;2.20;;
42802;SDS011;28447;48.682;9.022;2023-08-01T13:30:07;3.37;;;1.93;;
42802;SDS011;28447;48.682;9.022;2023-08-01T13:32:33;1.95;;;1.80;;
42802;SDS011;28447;48.682;9.022;2023-08-01T13:34:59;2.40;;;2.10;;
42802;SDS011;28447;48.682;9.022;2023-08-01T13:37:25;2.30;;;2.10;;
42802;SDS011;28447;48.682;9.022;2023-08-01T13:39:51;1.80;;;1.70;;
42802;SDS011;28447;48.682;9.022;2023-08-01T13:42:16;3.90;;;2.10;;
42802;SDS011;28447;48.682;9.022;2023-08-01T13:44:42;4.33;;;2.17;;
42802;SDS011;28447;48.682;9.022;2023-08-01T13:47:08;2.93;;;2.17;;
42802;SDS011;28447;48.682;9.022;2023-08-01T13:49:34;2.73;;;2.10;;
42802;SDS011;28447;48.682;9.022;2023-08-01T13:51:59;3.60;;;2.60;;
42802;SDS011;28447;48.682;9.022;2023-08-01T13:54:25;2.30;;;1.80;;
42802;SDS011;28447;48.682;9.022;2023-08-01T13:56:51;3.40;;;2.30;;
42802;SDS011;28447;48.682;9.022;2023-08-01T13:59:18;2.95;;;2.17;;
42802;SDS011;28447;48.682;9.022;2023-08-01T14:01:44;4.28;;;2.13;;
42802;SDS011;28447;48.682;9.022;2023-08-01T14:04:10;3.47;;;2.42;;
42802;SDS011;28447;48.682;9.022;2023-08-01T14:06:39;2.45;;;2.25;;
42802;SDS011;28447;48.682;9.022;2023-08-01T14:09:06;3.28;;;2.08;;
42802;SDS011;28447;48.682;9.022;2023-08-01T14:11:33;3.95;;;2.38;;
42802;SDS011;28447;48.682;9.022;2023-08-01T14:13:59;3.90;;;2.70;;
42802;SDS011;28447;48.682;9.022;2023-08-01T14:16:25;3.40;;;2.53;;
42802;SDS011;28447;48.682;9.022;2023-08-01T14:18:51;2.40;;;1.90;;
42802;SDS011;28447;48.682;9.022;2023-08-01T14:21:17;3.77;;;2.33;;
42802;SDS011;28447;48.682;9.022;2023-08-01T14:23:43;2.13;;;1.93;;
42802;SDS011;28447;48.682;9.022;2023-08-01T14:26:08;3.00;;;2.20;;
42802;SDS011;28447;48.682;9.022;2023-08-01T14:28:34;2.23;;;2.03;;
42802;SDS011;28447;48.682;9.022;2023-08-01T14:31:00;2.47;;;2.00;;
42802;SDS011;28447;48.682;9.022;2023-08-01T14:33:27;2.53;;;2.30;;
42802;SDS011;28447;48.682;9.022;2023-08-01T14:35:53;2.40;;;2.17;;
42802;SDS011;28447;48.682;9.022;2023-08-01T14:38:18;2.90;;;2.20;;
42802;SDS011;28447;48.682;9.022;2023-08-01T14:40:44;2.00;;;1.80;;
42802;SDS011;28447;48.682;9.022;2023-08-01T14:43:10;2.93;;;2.17;;
42802;SDS011;28447;48.682;9.022;2023-08-01T14:45:39;2.90;;;2.53;;
42802;SDS011;28447;48.682;9.022;2023-08-01T14:48:05;2.33;;;2.07;;
42802;SDS011;28447;48.682;9.022;2023-08-01T14:50:32;2.63;;;2.23;;
42802;SDS011;28447;48.682;9.022;2023-08-01T14:52:57;3.00;;;2.10;;
42802;SDS011;28447;48.682;9.022;2023-08-01T14:55:23;2.40;;;2.20;;
42802;SDS011;28447;48.682;9.022;2023-08-01T14:57:48;2.97;;;2.00;;
42802;SDS011;28447;48.682;9.022;2023-08-01T15:00:15;2.37;;;2.00;;
42802;SDS011;28447;48.682;9.022;2023-08-01T15:02:41;3.20;;;2.10;;
42802;SDS011;28447;48.682;9.022;2023-08-01T15:05:06;5.03;;;2.33;;
42802;SDS011;28447;48.682;9.022;2023-08-01T15:07:33;2.30;;;2.10;;
42802;SDS011;28447;48.682;9.022;2023-08-01T15:09:58;2.10;;;1.90;;
42802;SDS011;28447;48.682;9.022;2023-08-01T15:12:24;2.30;;;2.10;;
42802;SDS011;28447;48.682;9.022;2023-08-01T15:14:51;3.10;;;2.23;;
42802;SDS011;28447;48.682;9.022;2023-08-01T15:17:20;3.77;;;2.37;;
42802;SDS011;28447;48.682;9.022;2023-08-01T15:19:47;2.53;;;2.00;;
42802;SDS011;28447;48.682;9.022;2023-08-01T15:22:24;3.53;;;2.30;;
42802;SDS011;28447;48.682;9.022;2023-08-01T15:24:50;2.40;;;2.20;;
42802;SDS011;28447;48.682;9.022;2023-08-01T15:27:16;2.57;;;2.10;;
42802;SDS011;28447;48.682;9.022;2023-08-01T15:29:41;2.33;;;2.13;;
42802;SDS011;28447;48.682;9.022;2023-08-01T15:32:10;3.30;;;1.97;;
42802;SDS011;28447;48.682;9.022;2023-08-01T15:34:36;2.67;;;2.20;;
42802;SDS011;28447;48.682;9.022;2023-08-01T15:37:02;2.90;;;2.40;;
42802;SDS011;28447;48.682;9.022;2023-08-01T15:39:27;3.70;;;2.33;;
42802;SDS011;28447;48.682;9.022;2023-08-01T15:41:53;2.20;;;1.97;;
42802;SDS011;28447;48.682;9.022;2023-08-01T15:44:19;2.77;;;2.30;;
42802;SDS011;28447;48.682;9.022;2023-08-01T15:46:44;2.10;;;1.90;;
42802;SDS011;28447;48.682;9.022;2023-08-01T15:49:10;2.70;;;2.10;;
42802;SDS011;28447;48.682;9.022;2023-08-01T15:51:36;2.27;;;1.83;;
42802;SDS011;28447;48.682;9.022;2023-08-01T15:54:01;2.90;;;2.00;;
42802;SDS011;28447;48.682;9.022;2023-08-01T15:56:28;2.60;;;1.90;;
42802;SDS011;28447;48.682;9.022;2023-08-01T15:58:53;3.20;;;2.20;;
42802;SDS011;28447;48.682;9.022;2023-08-01T16:01:19;3.90;;;2.40;;
42802;SDS011;28447;48.682;9.022;2023-08-01T16:03:45;4.33;;;2.40;;
42802;SDS011;28447;48.682;9.022;2023-08-01T16:06:10;2.87;;;2.00;;
42802;SDS011;28447;48.682;9.022;2023-08-01T16:08:38;2.10;;;1.90;;
42802;SDS011;28447;48.682;9.022;2023-08-01T16:11:04;2.50;;;2.20;;
42802;SDS011;28447;48.682;9.022;2023-08-01T16:13:29;2.30;;;2.10;;
42802;SDS011;28447;48.682;9.022;2023-08-01T16:15:55;4.20;;;2.23;;
42802;SDS011;28447;48.682;9.022;2023-08-01T16:18:21;2.00;;;1.80;;
42802;SDS011;28447;48.682;9.022;2023-08-01T16:20:46;5.43;;;2.20;;
42802;SDS011;28447;48.682;9.022;2023-08-01T16:23:12;3.87;;;2.10;;
42802;SDS011;28447;48.682;9.022;2023-08-01T16:25:39;3.20;;;2.30;;
42802;SDS011;28447;48.682;9.022;2023-08-01T16:28:05;2.10;;;1.90;;
42802;SDS011;28447;48.682;9.022;2023-08-01T16:30:33;2.37;;;2.10;;
42802;SDS011;28447;48.682;9.022;2023-08-01T16:32:59;2.47;;;2.00;;
42802;SDS011;28447;48.682;9.022;2023-08-01T16:35:24;2.23;;;1.90;;
42802;SDS011;28447;48.682;9.022;2023-08-01T16:37:50;2.40;;;2.20;;
42802;SDS011;28447;48.682;9.022;2023-08-01T16:40:16;2.63;;;2.10;;
42802;SDS011;28447;48.682;9.022;2023-08-01T16:42:42;2.43;;;2.23;;
42802;SDS011;28447;48.682;9.022;2023-08-01T16:45:08;2.70;;;1.90;;
42802;SDS011;28447;48.682;9.022;2023-08-01T16:47:36;3.13;;;2.13;;
42802;SDS011;28447;48.682;9.022;2023-08-01T16:50:02;2.17;;;1.97;;
42802;SDS011;28447;48.682;9.022;2023-08-01T16:52:27;2.50;;;2.00;;
42802;SDS011;28447;48.682;9.022;2023-08-01T16:54:53;3.17;;;2.03;;
42802;SDS011;28447;48.682;9.022;2023-08-01T16:57:19;2.20;;;2.00;;
42802;SDS011;28447;48.682;9.022;2023-08-01T16:59:44;3.20;;;2.10;;
42802;SDS011;28447;48.682;9.022;2023-08-01T17:02:10;2.40;;;2.03;;
42802;SDS011;28447;48.682;9.022;2023-08-01T17:04:40;2.40;;;2.00;;
42802;SDS011;28447;48.682;9.022;2023-08-01T17:07:06;2.40;;;2.20;;
42802;SDS011;28447;48.682;9.022;2023-08-01T17:09:32;2.50;;;2.13;;
42802;SDS011;28447;48.682;9.022;2023-08-01T17:11:59;2.30;;;2.00;;
42802;SDS011;28447;48.682;9.022;2023-08-01T17:14:25;2.57;;;2.17;;
42802;SDS011;28447;48.682;9.022;2023-08-01T17:16:53;2.67;;;2.33;;
42802;SDS011;28447;48.682;9.022;2023-08-01T17:19:18;3.50;;;2.20;;
42802;SDS011;28447;48.682;9.022;2023-08-01T17:21:44;3.53;;;2.30;;
42802;SDS011;28447;48.682;9.022;2023-08-01T17:24:10;2.97;;;2.10;;
42802;SDS011;28447;48.682;9.022;2023-08-01T17:26:38;2.60;;;2.10;;
42802;SDS011;28447;48.682;9.022;2023-08-01T17:29:04;4.10;;;2.27;;
42802;SDS011;28447;48.682;9.022;2023-08-01T17:31:30;2.37;;;1.80;;
42802;SDS011;28447;48.682;9.022;2023-08-01T17:34:05;3.83;;;1.90;;
42802;SDS011;28447;48.682;9.022;2023-08-01T17:36:31;3.30;;;2.50;;
42802;SDS011;28447;48.682;9.022;2023-08-01T17:38:57;3.73;;;2.20;;
42802;SDS011;28447;48.682;9.022;2023-08-01T17:41:26;3.20;;;2.50;;
42802;SDS011;28447;48.682;9.022;2023-08-01T17:43:53;2.53;;;2.10;;
42802;SDS011;28447;48.682;9.022;2023-08-01T17:46:20;2.50;;;2.00;;
42802;SDS011;28447;48.682;9.022;2023-08-01T17:48:46;2.70;;;2.27;;
42802;SDS011;28447;48.682;9.022;2023-08-01T17:51:12;3.40;;;2.40;;
42802;SDS011;28447;48.682;9.022;2023-08-01T17:53:39;3.53;;;2.50;;
42802;SDS011;28447;48.682;9.022;2023-08-01T17:56:07;3.33;;;2.10;;
42802;SDS011;28447;48.682;9.022;2023-08-01T17:58:33;3.03;;;2.10;;
42802;SDS011;28447;48.682;9.022;2023-08-01T18:00:59;2.87;;;2.30;;
42802;SDS011;28447;48.682;9.022;2023-08-01T18:03:24;2.47;;;2.27;;
42802;SDS011;28447;48.682;9.022;2023-08-01T18:05:52;3.00;;;2.50;;
42802;SDS011;28447;48.682;9.022;2023-08-01T18:08:30;2.67;;;2.27;;
42802;SDS011;28447;48.682;9.022;2023-08-01T18:10:56;4.53;;;2.30;;
42802;SDS011;28447;48.682;9.022;2023-08-01T18:13:24;2.40;;;2.20;;
42802;SDS011;28447;48.682;9.022;2023-08-01T18:15:50;5.23;;;2.20;;
42802;SDS011;28447;48.682;9.022;2023-08-01T18:18:16;2.90;;;2.60;;
42802;SDS011;28447;48.682;9.022;2023-08-01T18:20:43;2.90;;;2.33;;
42802;SDS011;28447;48.682;9.022;2023-08-01T18:23:09;2.37;;;1.90;;
42802;SDS011;28447;48.682;9.022;2023-08-01T18:25:35;3.07;;;2.10;;
42802;SDS011;28447;48.682;9.022;2023-08-01T18:28:01;4.80;;;2.87;;
42802;SDS011;28447;48.682;9.022;2023-08-01T18:30:30;4.30;;;2.40;;
42802;SDS011;28447;48.682;9.022;2023-08-01T18:32:56;3.20;;;2.20;;
42802;SDS011;28447;48.682;9.022;2023-08-01T18:35:22;3.50;;;2.40;;
42802;SDS011;28447;48.682;9.022;2023-08-01T18:37:47;2.43;;;2.10;;
42802;SDS011;28447;48.682;9.022;2023-08-01T18:40:13;2.27;;;1.97;;
42802;SDS011;28447;48.682;9.022;2023-08-01T18:42:41;3.20;;;2.23;;
42802;SDS011;28447;48.682;9.022;2023-08-01T18:45:07;2.87;;;2.30;;
42802;SDS011;28447;48.682;9.022;2023-08-01T18:47:33;2.77;;;2.30;;
42802;SDS011;28447;48.682;9.022;2023-08-01T18:49:59;2.37;;;2.00;;